Time;durP1;ratioP1;P1;durP2;ratioP2;P2;SDS_P1;SDS_P2;PMS_P1;PMS_P2;Temp;Humidity;BMP_temperature;BMP_pressure;BME280_temperature;BME280_humidity;BME280_pressure;Samples;Min_cycle;Max_cycle;Signal;HPM_P1;HPM_P2
2020/12/19 00:00:35;;;;;;;21.97;13.23;;;;;;;0.60;84.20;101416.59;5040135;28;20029;-71
2020/12/19 00:03:00;;;;;;;23.73;13.77;;;;;;;0.57;83.27;101412.13;5039845;28;20699;-72
2020/12/19 00:05:26;;;;;;;24.93;14.10;;;;;;;0.53;83.76;101415.41;5043490;28;20033;-72
2020/12/19 00:07:51;;;;;;;21.77;12.10;;;;;;;0.51;83.61;101418.75;5043504;28;20064;-71
2020/12/19 00:10:16;;;;;;;22.13;12.53;;;;;;;0.50;83.43;101419.56;5041212;28;20079;-71
2020/12/19 00:12:45;;;;;;;19.97;11.83;;;;;;;0.51;84.03;101417.03;5039745;28;20033;-71
2020/12/19 00:15:13;;;;;;;27.30;14.87;;;;;;;0.57;84.02;101411.25;5041257;28;20480;-71
2020/12/19 00:17:38;;;;;;;21.97;12.90;;;;;;;0.61;84.40;101410.59;5043296;28;20065;-71
2020/12/19 00:20:04;;;;;;;21.33;12.50;;;;;;;0.64;84.38;101413.34;5042899;28;20079;-70
2020/12/19 00:22:29;;;;;;;19.57;11.57;;;;;;;0.66;84.13;101411.69;5039556;28;20045;-71
2020/12/19 00:24:54;;;;;;;19.63;11.83;;;;;;;0.67;84.45;101408.28;5039729;28;20038;-72
2020/12/19 00:27:20;;;;;;;22.20;12.17;;;;;;;0.69;84.75;101405.75;5044945;28;20018;-72
2020/12/19 00:29:45;;;;;;;21.43;12.50;;;;;;;0.69;84.48;101404.06;5043382;28;20401;-71
2020/12/19 00:32:11;;;;;;;18.47;11.67;;;;;;;0.68;84.70;101404.84;5041635;28;20036;-71
2020/12/19 00:34:36;;;;;;;20.33;12.03;;;;;;;0.68;84.14;101398.75;5039688;28;20075;-71
2020/12/19 00:37:02;;;;;;;21.63;12.27;;;;;;;0.69;84.20;101385.88;5039667;28;20049;-71
2020/12/19 00:39:28;;;;;;;20.83;11.63;;;;;;;0.69;84.52;101390.19;5042963;28;20056;-71
2020/12/19 00:41:53;;;;;;;22.17;11.77;;;;;;;0.64;83.65;101388.22;5025283;28;20086;-71
2020/12/19 00:44:19;;;;;;;19.30;10.40;;;;;;;0.58;83.43;101381.88;5040379;28;20037;-72
2020/12/19 00:46:48;;;;;;;19.43;11.40;;;;;;;0.51;83.85;101387.59;5021893;28;20072;-71
2020/12/19 00:49:13;;;;;;;20.00;11.57;;;;;;;0.44;83.79;101389.88;5041091;28;20068;-72
2020/12/19 00:51:39;;;;;;;26.10;14.63;;;;;;;0.40;83.92;101387.06;5024941;28;20436;-71
2020/12/19 00:54:04;;;;;;;25.77;14.43;;;;;;;0.33;83.79;101390.16;5042230;28;20039;-71
2020/12/19 00:56:29;;;;;;;21.87;13.67;;;;;;;0.27;84.00;101390.78;5039319;28;20029;-71
2020/12/19 00:58:56;;;;;;;26.33;14.07;;;;;;;0.24;83.69;101390.63;5039469;28;20514;-71
2020/12/19 01:01:23;;;;;;;23.77;14.03;;;;;;;0.22;83.70;101387.06;5043942;28;20041;-71
2020/12/19 01:03:49;;;;;;;41.57;21.47;;;;;;;0.23;83.67;101386.22;5049141;28;20033;-72
2020/12/19 01:06:19;;;;;;;27.70;15.67;;;;;;;0.23;83.87;101386.22;5047655;28;20040;-71
2020/12/19 01:08:47;;;;;;;21.20;12.70;;;;;;;0.24;84.02;101388.03;5045826;28;20037;-71
2020/12/19 01:11:16;;;;;;;26.63;14.57;;;;;;;0.27;84.69;101388.16;5047383;28;20476;-71
2020/12/19 01:13:42;;;;;;;31.90;17.23;;;;;;;0.26;84.15;101388.09;5049147;28;20041;-71
2020/12/19 01:16:08;;;;;;;22.93;13.27;;;;;;;0.20;83.96;101378.28;5048448;28;20037;-71
2020/12/19 01:18:34;;;;;;;30.60;15.97;;;;;;;0.14;84.06;101381.47;5045734;28;20133;-71
2020/12/19 01:21:00;;;;;;;27.33;15.47;;;;;;;0.10;83.67;101386.44;5045817;28;20038;-71
2020/12/19 01:23:26;;;;;;;30.83;16.93;;;;;;;0.07;83.24;101375.91;5048728;28;20033;-71
2020/12/19 01:25:51;;;;;;;23.17;13.97;;;;;;;0.08;84.16;101382.88;5049292;28;20060;-71
2020/12/19 01:28:17;;;;;;;32.07;16.67;;;;;;;0.10;84.56;101383.84;5047065;28;20124;-71
2020/12/19 01:30:42;;;;;;;26.57;15.23;;;;;;;0.12;85.09;101379.63;5045683;28;20087;-72
2020/12/19 01:33:07;;;;;;;27.00;15.27;;;;;;;0.14;84.73;101375.41;5046156;28;20042;-71
2020/12/19 01:35:33;;;;;;;31.93;17.33;;;;;;;0.12;83.88;101374.44;5049070;28;20083;-71
2020/12/19 01:37:58;;;;;;;26.50;15.23;;;;;;;0.09;84.00;101379.47;5048987;28;20086;-71
2020/12/19 01:40:23;;;;;;;20.37;11.33;;;;;;;0.10;84.19;101376.94;5028180;28;20048;-71
2020/12/19 01:42:49;;;;;;;27.33;14.97;;;;;;;0.07;83.30;101373.31;5045386;28;20029;-71
2020/12/19 01:45:14;;;;;;;23.37;13.57;;;;;;;0.01;83.14;101370.41;5047321;28;20040;-71
2020/12/19 01:47:39;;;;;;;25.77;15.27;;;;;;;-0.01;83.56;101365.13;5049081;28;20388;-71
2020/12/19 01:50:06;;;;;;;26.57;15.50;;;;;;;-0.01;83.53;101366.03;5048432;28;20037;-71
2020/12/19 01:52:32;;;;;;;29.20;16.03;;;;;;;-0.01;83.79;101366.03;5045206;28;20419;-71
2020/12/19 01:54:58;;;;;;;24.03;14.57;;;;;;;-0.03;83.72;101362.50;5045797;28;20043;-72
2020/12/19 01:57:26;;;;;;;27.50;15.57;;;;;;;-0.05;83.49;101358.03;5048639;28;20491;-71
2020/12/19 01:59:52;;;;;;;27.07;15.17;;;;;;;-0.16;82.65;101351.41;5048880;28;20040;-71
2020/12/19 02:02:21;;;;;;;26.30;13.13;;;;;;;-0.28;82.64;101351.69;5046369;28;20025;-71
2020/12/19 02:04:47;;;;;;;23.93;12.33;;;;;;;-0.42;82.92;101353.56;5045508;28;20040;-71
2020/12/19 02:07:12;;;;;;;21.93;11.90;;;;;;;-0.45;83.38;101349.13;5046905;28;20104;-71
2020/12/19 02:09:39;;;;;;;25.50;14.27;;;;;;;-0.43;84.45;101346.59;5031047;28;20071;-71
2020/12/19 02:12:06;;;;;;;25.83;13.20;;;;;;;-0.39;84.40;101348.53;5048110;28;20036;-71
2020/12/19 02:14:32;;;;;;;48.30;27.13;;;;;;;-0.36;84.42;101337.44;5042129;28;20081;-71
2020/12/19 02:17:08;;;;;;;36.63;21.30;;;;;;;-0.33;84.58;101333.28;5042167;28;20125;-71
2020/12/19 02:19:34;;;;;;;31.13;16.93;;;;;;;-0.28;84.49;101336.13;5042113;28;20037;-71
2020/12/19 02:22:00;;;;;;;20.93;12.27;;;;;;;-0.26;84.52;101334.50;5041971;28;20117;-71
2020/12/19 02:24:26;;;;;;;31.93;16.87;;;;;;;-0.32;83.69;101334.16;5045205;28;20032;-71
2020/12/19 02:26:53;;;;;;;28.87;15.63;;;;;;;-0.34;83.39;101330.59;5048079;28;20033;-71
2020/12/19 02:29:20;;;;;;;29.17;16.00;;;;;;;-0.41;83.63;101334.59;5043003;28;20029;-71
2020/12/19 02:31:46;;;;;;;24.80;14.37;;;;;;;-0.45;83.39;101332.66;5041874;28;20045;-71
2020/12/19 02:34:12;;;;;;;40.07;20.87;;;;;;;-0.42;84.13;101324.13;5042945;28;20077;-71
2020/12/19 02:36:38;;;;;;;31.03;17.40;;;;;;;-0.41;84.12;101324.22;5045245;28;20087;-71
2020/12/19 02:39:05;;;;;;;28.33;16.13;;;;;;;-0.46;83.42;101326.59;5044933;28;20041;-72
2020/12/19 02:41:34;;;;;;;24.60;13.47;;;;;;;-0.47;83.64;101323.94;5016514;28;20144;-72
2020/12/19 02:43:59;;;;;;;24.90;13.57;;;;;;;-0.54;83.77;101322.72;5041105;28;20033;-72
2020/12/19 02:46:25;;;;;;;23.97;12.90;;;;;;;-0.54;84.22;101332.19;5041865;28;20087;-71
2020/12/19 02:48:50;;;;;;;22.20;11.97;;;;;;;-0.56;84.24;101328.63;5041659;28;20395;-72
2020/12/19 02:51:16;;;;;;;23.77;13.13;;;;;;;-0.59;83.71;101320.69;5043499;28;20086;-71
2020/12/19 02:53:41;;;;;;;24.90;13.00;;;;;;;-0.57;84.71;101322.56;5044685;28;20045;-71
2020/12/19 02:56:07;;;;;;;26.13;14.17;;;;;;;-0.54;85.20;101322.72;5044163;28;20079;-71
2020/12/19 02:58:32;;;;;;;32.50;17.47;;;;;;;-0.52;83.99;101315.91;5041441;28;20442;-71
2020/12/19 03:00:58;;;;;;;30.40;16.57;;;;;;;-0.52;84.13;101315.03;5041431;28;20052;-71
2020/12/19 03:03:23;;;;;;;31.57;17.13;;;;;;;-0.55;84.20;101310.56;5043863;28;20503;-71
2020/12/19 03:05:48;;;;;;;22.50;12.77;;;;;;;-0.50;85.01;101309.09;5027045;28;20067;-72
2020/12/19 03:08:14;;;;;;;24.67;14.73;;;;;;;-0.42;85.22;101308.56;5043011;28;20044;-72
2020/12/19 03:10:39;;;;;;;27.77;14.43;;;;;;;-0.36;85.00;101306.31;5041240;28;20033;-71
2020/12/19 03:13:04;;;;;;;23.00;12.10;;;;;;;-0.30;85.13;101306.59;5041198;28;20044;-72
2020/12/19 03:15:30;;;;;;;22.70;14.67;;;;;;;-0.27;85.14;101304.16;5044447;28;20124;-72
2020/12/19 03:17:55;;;;;;;25.20;13.57;;;;;;;-0.22;84.94;101306.16;5044496;28;20029;-72
2020/12/19 03:20:20;;;;;;;27.70;15.63;;;;;;;-0.15;84.81;101296.13;5041883;28;20583;-71
2020/12/19 03:22:46;;;;;;;24.10;14.10;;;;;;;-0.10;85.27;101303.31;5040509;28;20072;-71
2020/12/19 03:25:11;;;;;;;26.37;15.50;;;;;;;-0.16;83.76;101297.78;5041643;28;20075;-71
2020/12/19 03:27:36;;;;;;;26.60;14.43;;;;;;;-0.26;83.74;101296.47;5044317;28;20044;-71
2020/12/19 03:30:04;;;;;;;22.60;12.60;;;;;;;-0.35;83.36;101289.94;5044168;28;20037;-71
2020/12/19 03:32:29;;;;;;;26.97;14.93;;;;;;;-0.46;83.65;101285.09;5040449;28;20033;-72
2020/12/19 03:34:54;;;;;;;20.07;11.67;;;;;;;-0.51;84.04;101293.44;5040797;28;20124;-71
2020/12/19 03:37:20;;;;;;;23.70;13.33;;;;;;;-0.56;83.25;101295.81;5043003;28;20071;-71
2020/12/19 03:39:45;;;;;;;22.77;12.87;;;;;;;-0.63;83.15;101280.75;5044160;28;20036;-72
2020/12/19 03:42:10;;;;;;;20.97;12.60;;;;;;;-0.67;84.01;101281.41;5042622;28;20468;-72
2020/12/19 03:44:36;;;;;;;22.43;12.03;;;;;;;-0.61;84.90;101284.31;5040520;28;20471;-72
2020/12/19 03:47:01;;;;;;;22.53;12.63;;;;;;;-0.55;84.69;101289.81;5040472;28;20057;-72
2020/12/19 03:49:26;;;;;;;22.57;11.93;;;;;;;-0.55;84.76;101289.81;5043752;28;20483;-72
2020/12/19 03:51:52;;;;;;;23.43;12.03;;;;;;;-0.56;84.51;101287.16;5043758;28;20463;-72
2020/12/19 03:54:17;;;;;;;20.00;11.03;;;;;;;-0.59;84.42;101295.66;5041481;28;20399;-71
2020/12/19 03:56:43;;;;;;;28.37;15.63;;;;;;;-0.58;84.91;101291.34;5033016;28;20401;-71
2020/12/19 03:59:08;;;;;;;22.47;12.13;;;;;;;-0.62;84.57;101290.31;5040227;28;20411;-72
2020/12/19 04:01:33;;;;;;;19.67;11.20;;;;;;;-0.64;84.28;101288.47;5040121;28;20041;-72
2020/12/19 04:03:59;;;;;;;18.57;10.20;;;;;;;-0.64;84.47;101281.56;5039854;28;20037;-72
2020/12/19 04:06:24;;;;;;;21.93;11.83;;;;;;;-0.64;84.46;101273.78;5022021;28;20041;-71
2020/12/19 04:08:50;;;;;;;22.83;12.97;;;;;;;-0.59;85.13;101269.72;5048923;28;20409;-71
2020/12/19 04:11:16;;;;;;;22.00;13.00;;;;;;;-0.59;84.83;101272.31;5041575;28;20076;-71
2020/12/19 04:13:41;;;;;;;27.70;16.33;;;;;;;-0.62;84.54;101274.75;5039532;28;20214;-71
2020/12/19 04:16:07;;;;;;;25.47;14.93;;;;;;;-0.72;83.67;101269.91;5040654;28;20040;-72
2020/12/19 04:18:32;;;;;;;24.63;14.03;;;;;;;-0.78;83.93;101264.44;5043366;28;20033;-71
2020/12/19 04:20:57;;;;;;;26.43;14.60;;;;;;;-0.78;83.80;101265.31;5043300;28;20056;-71
2020/12/19 04:23:22;;;;;;;30.60;17.37;;;;;;;-0.78;83.82;101269.63;5040105;28;20033;-72
2020/12/19 04:25:48;;;;;;;30.90;17.03;;;;;;;-0.77;84.63;101273.97;5040123;28;20112;-72
2020/12/19 04:28:13;;;;;;;22.93;13.77;;;;;;;-0.72;84.91;101273.41;5041308;28;20025;-72
2020/12/19 04:30:39;;;;;;;21.70;13.53;;;;;;;-0.57;85.50;101268.09;5040809;28;20075;-72
2020/12/19 04:33:04;;;;;;;29.27;16.27;;;;;;;-0.48;85.73;101265.06;5039723;28;20037;-72
2020/12/19 04:35:29;;;;;;;23.50;13.30;;;;;;;-0.42;85.16;101269.69;5042774;28;20035;-71
2020/12/19 04:37:55;;;;;;;20.93;12.90;;;;;;;-0.39;84.94;101270.75;5042603;28;20460;-72
2020/12/19 04:40:20;;;;;;;21.70;11.73;;;;;;;-0.33;84.95;101262.38;5040503;28;20533;-71
2020/12/19 04:42:45;;;;;;;18.60;11.10;;;;;;;-0.26;85.16;101262.75;5039194;28;20057;-71
2020/12/19 04:45:11;;;;;;;17.90;10.93;;;;;;;-0.19;85.50;101258.72;5040794;28;20506;-72
2020/12/19 04:47:36;;;;;;;25.00;14.40;;;;;;;-0.13;85.23;101260.72;5042978;28;20111;-72
2020/12/19 04:50:03;;;;;;;19.90;11.33;;;;;;;-0.12;85.04;101266.00;5042976;28;20031;-72
2020/12/19 04:52:29;;;;;;;19.63;11.07;;;;;;;-0.08;84.75;101265.34;5039550;28;20453;-72
2020/12/19 04:54:55;;;;;;;16.87;10.43;;;;;;;-0.01;85.51;101263.94;5039494;28;20060;-72
2020/12/19 04:57:21;;;;;;;23.43;14.37;;;;;;;0.09;85.36;101260.06;5041768;28;20034;-71
2020/12/19 04:59:48;;;;;;;19.30;11.63;;;;;;;0.15;85.40;101265.56;5042746;28;20033;-72
2020/12/19 05:02:14;;;;;;;21.43;13.37;;;;;;;0.17;85.07;101261.31;5041022;28;20040;-72
2020/12/19 05:04:40;;;;;;;22.23;13.33;;;;;;;0.22;85.23;101257.25;5039639;28;20415;-72
2020/12/19 05:07:09;;;;;;;19.67;11.97;;;;;;;0.26;85.59;101259.16;5039932;28;20072;-72
2020/12/19 05:09:39;;;;;;;19.00;11.17;;;;;;;0.34;85.89;101251.72;5042717;28;20483;-72
2020/12/19 05:12:08;;;;;;;15.47;10.10;;;;;;;0.38;85.35;101253.66;5024361;28;20530;-71
2020/12/19 05:14:33;;;;;;;17.70;10.10;;;;;;;0.40;84.88;101254.63;5039309;28;20432;-71
2020/12/19 05:16:59;;;;;;;15.97;9.77;;;;;;;0.40;85.03;101257.22;5039162;28;20167;-72
2020/12/19 05:19:29;;;;;;;18.30;11.00;;;;;;;0.42;84.77;101251.28;5042309;28;20044;-72
2020/12/19 05:21:56;;;;;;;16.50;10.37;;;;;;;0.44;84.63;101243.53;5042562;28;20120;-72
2020/12/19 05:24:34;;;;;;;17.53;10.23;;;;;;;0.43;84.83;101253.03;5039643;28;20190;-72
2020/12/19 05:27:01;;;;;;;19.53;10.87;;;;;;;0.50;85.43;101255.91;5039228;28;20033;-72
2020/12/19 05:29:26;;;;;;;15.90;9.90;;;;;;;0.56;85.45;101256.22;5042397;28;20511;-72
2020/12/19 05:32:00;;;;;;;16.23;10.37;;;;;;;0.60;85.02;101248.66;5042473;28;20033;-72
2020/12/19 05:34:27;;;;;;;16.17;10.17;;;;;;;0.64;85.74;101245.34;5039215;28;20080;-72
2020/12/19 05:36:53;;;;;;;18.53;10.47;;;;;;;0.69;85.43;101250.75;5038969;28;20108;-70
2020/12/19 05:39:19;;;;;;;15.57;9.10;;;;;;;0.73;85.42;101254.38;5039378;28;20125;-70
2020/12/19 05:41:46;;;;;;;16.33;10.23;;;;;;;0.74;85.02;101254.47;5032385;28;20111;-70
2020/12/19 05:44:13;;;;;;;15.47;9.20;;;;;;;0.79;85.55;101263.34;5053847;28;20045;-70
2020/12/19 05:46:41;;;;;;;16.30;9.87;;;;;;;0.81;85.22;101255.59;5024745;28;20475;-70
2020/12/19 05:49:08;;;;;;;15.67;9.33;;;;;;;0.84;85.09;101255.78;5044884;28;20037;-70
2020/12/19 05:51:36;;;;;;;17.43;10.07;;;;;;;0.84;85.00;101247.97;5042667;28;20034;-70
2020/12/19 05:54:08;;;;;;;16.80;10.03;;;;;;;0.87;84.83;101256.78;5042225;28;20036;-70
2020/12/19 05:56:37;;;;;;;15.57;9.48;;;;;;;0.90;84.69;101261.22;5043853;28;20029;-71
2020/12/19 05:59:03;;;;;;;15.67;9.07;;;;;;;0.91;84.35;101251.72;5051787;28;20043;-70
2020/12/19 06:01:30;;;;;;;16.27;10.40;;;;;;;0.95;85.28;101251.03;5049849;28;20059;-70
2020/12/19 06:03:56;;;;;;;16.33;9.50;;;;;;;0.97;85.19;101246.78;5040322;28;20095;-70
2020/12/19 06:06:24;;;;;;;17.50;10.60;;;;;;;0.97;84.78;101244.19;5043144;28;20743;-71
2020/12/19 06:08:51;;;;;;;16.00;9.53;;;;;;;0.97;84.80;101242.50;5043934;28;20043;-70
2020/12/19 06:11:22;;;;;;;15.17;9.10;;;;;;;0.97;84.56;101241.56;5041880;28;20622;-69
2020/12/19 06:13:52;;;;;;;15.77;8.60;;;;;;;0.97;84.41;101246.78;5040165;28;20584;-70
2020/12/19 06:16:19;;;;;;;13.83;8.40;;;;;;;1.00;84.59;101239.16;5043919;28;20045;-70
2020/12/19 06:19:02;;;;;;;13.23;7.90;;;;;;;1.04;84.68;101241.03;5045683;28;20048;-71
2020/12/19 06:21:28;;;;;;;12.80;8.43;;;;;;;1.08;85.23;101240.34;5042260;28;20087;-71
2020/12/19 06:23:53;;;;;;;14.40;8.57;;;;;;;1.11;85.00;101242.22;5041847;28;20034;-70
2020/12/19 06:26:34;;;;;;;14.53;8.50;;;;;;;1.15;84.99;101242.38;5044228;28;20404;-70
2020/12/19 06:28:59;;;;;;;14.03;8.47;;;;;;;1.19;85.03;101241.69;5045419;28;20040;-70
2020/12/19 06:31:25;;;;;;;13.87;8.90;;;;;;;1.21;84.66;101245.25;5042343;28;20040;-70
2020/12/19 06:33:54;;;;;;;12.43;8.43;;;;;;;1.24;85.19;101242.78;5041635;28;20037;-70
2020/12/19 06:36:27;;;;;;;13.20;8.37;;;;;;;1.26;84.69;101242.88;5048438;28;20040;-69
2020/12/19 06:38:57;;;;;;;15.73;9.97;;;;;;;1.27;84.48;101242.91;5049345;28;20026;-70
2020/12/19 06:41:48;;;;;;;14.73;9.40;;;;;;;1.21;83.86;101245.25;5049603;28;20040;-68
2020/12/19 06:44:23;;;;;;;13.97;7.97;;;;;;;1.16;83.78;101248.50;5054168;28;20082;-67
2020/12/19 06:46:48;;;;;;;12.57;7.50;;;;;;;1.08;83.69;101235.16;5042874;28;20037;-69
2020/12/19 06:49:22;;;;;;;16.40;8.80;;;;;;;1.02;83.37;101237.47;5060803;28;20449;-69
2020/12/19 06:52:09;;;;;;;12.73;7.60;;;;;;;0.96;83.60;101242.41;5050317;28;20116;-68
2020/12/19 06:54:40;;;;;;;12.43;7.93;;;;;;;0.94;83.39;101238.84;5041575;28;20042;-70
2020/12/19 06:57:25;;;;;;;16.43;9.57;;;;;;;0.93;83.53;101234.50;5041811;28;20045;-69
2020/12/19 06:59:52;;;;;;;15.13;9.53;;;;;;;0.73;83.39;101233.59;5041080;28;20044;-69
2020/12/19 07:02:22;;;;;;;15.23;9.40;;;;;;;0.64;83.57;101231.47;5045049;28;20033;-69
2020/12/19 07:04:49;;;;;;;15.63;9.37;;;;;;;0.62;83.11;101233.09;5045327;28;20479;-69
2020/12/19 07:07:25;;;;;;;15.27;8.83;;;;;;;0.58;83.38;101229.50;5053313;28;20036;-69
2020/12/19 07:09:59;;;;;;;15.07;8.77;;;;;;;0.55;83.92;101231.97;5055458;28;20040;-69
2020/12/19 07:12:41;;;;;;;14.50;9.13;;;;;;;0.53;82.94;101228.41;5041393;28;20658;-69
2020/12/19 07:15:10;;;;;;;15.05;9.15;;;;;;;0.54;83.79;101224.97;5041687;28;20124;-69
2020/12/19 07:17:47;;;;;;;16.30;9.73;;;;;;;0.60;83.48;101232.16;5044579;28;20124;-68
2020/12/19 07:20:18;;;;;;;16.37;9.10;;;;;;;0.65;84.18;101228.03;5043093;28;20044;-69
2020/12/19 07:22:44;;;;;;;17.35;10.40;;;;;;;0.74;84.26;101236.28;5040808;28;20033;-69
2020/12/19 07:25:09;;;;;;;18.30;10.40;;;;;;;0.83;84.82;101226.25;5041701;28;20088;-68
2020/12/19 07:27:34;;;;;;;19.80;11.70;;;;;;;0.92;84.53;101227.50;5044450;28;20082;-69
2020/12/19 07:30:00;;;;;;;15.83;10.17;;;;;;;1.05;84.51;101232.44;5044285;28;20033;-69
2020/12/19 07:32:27;;;;;;;18.23;10.67;;;;;;;1.14;84.51;101235.41;5040709;28;20132;-69
2020/12/19 07:34:57;;;;;;;19.10;11.07;;;;;;;1.26;84.91;101229.88;5040784;28;20033;-68
2020/12/19 07:37:24;;;;;;;18.30;11.30;;;;;;;1.35;84.72;101238.03;5043336;28;20038;-69
2020/12/19 07:39:49;;;;;;;16.27;9.87;;;;;;;1.43;84.64;101239.25;5043952;28;20032;-68
2020/12/19 07:42:15;;;;;;;19.03;10.63;;;;;;;1.56;84.21;101243.25;5042036;28;20442;-69
2020/12/19 07:44:41;;;;;;;17.07;10.53;;;;;;;1.63;84.31;101236.63;5045389;28;20025;-69
2020/12/19 07:47:13;;;;;;;17.10;11.10;;;;;;;1.70;84.09;101239.53;5043994;28;20037;-68
2020/12/19 07:49:42;;;;;;;;;;;;;;;1.75;84.22;101247.50;5047005;28;20071;-68
2020/12/19 07:52:10;;;;;;;18.13;10.27;;;;;;;1.90;84.01;101239.44;5040678;28;19913;-69
2020/12/19 07:54:36;;;;;;;19.80;11.25;;;;;;;2.00;84.04;101238.09;5043764;28;20418;-69
2020/12/19 07:57:02;;;;;;;16.93;10.23;;;;;;;2.08;83.99;101228.88;5043679;28;20563;-70
2020/12/19 07:59:28;;;;;;;17.80;11.33;;;;;;;2.19;83.97;101219.75;5040105;28;20041;-69
2020/12/19 08:02:00;;;;;;;18.30;10.90;;;;;;;2.25;83.48;101217.38;5042811;28;20037;-69
2020/12/19 08:04:26;;;;;;;17.40;10.73;;;;;;;2.27;82.78;101218.31;5042819;28;20093;-69
2020/12/19 08:06:51;;;;;;;15.05;10.07;;;;;;;2.31;82.97;101224.56;5049232;28;20041;-69
2020/12/19 08:09:20;;;;;;;17.85;11.48;;;;;;;2.44;82.82;101234.63;5052376;28;20090;-69
2020/12/19 08:11:47;;;;;;;16.20;10.07;;;;;;;2.51;82.63;101228.78;5039981;28;20037;-68
2020/12/19 08:14:21;;;;;;;18.20;10.82;;;;;;;2.56;82.33;101232.47;5041523;28;20036;-69
2020/12/19 08:16:47;;;;;;;18.17;12.17;;;;;;;2.62;82.39;101232.72;5045188;28;20065;-69
2020/12/19 08:19:22;;;;;;;15.45;10.52;;;;;;;2.70;82.05;101234.69;5042503;28;20041;-69
2020/12/19 08:21:50;;;;;;;18.90;12.25;;;;;;;2.71;81.57;101226.94;5054144;28;20513;-69
2020/12/19 08:24:15;;;;;;;18.38;11.45;;;;;;;2.75;81.82;101226.22;5041354;28;20033;-69
2020/12/19 08:26:41;;;;;;;16.33;11.10;;;;;;;2.81;81.41;101242.09;5039840;28;20040;-69
2020/12/19 08:29:08;;;;;;;17.70;11.70;;;;;;;2.87;81.28;101238.81;5040262;28;20038;-69
2020/12/19 08:31:36;;;;;;;17.83;11.05;;;;;;;2.92;81.20;101237.25;5043225;28;20041;-69
2020/12/19 08:34:10;;;;;;;16.92;10.15;;;;;;;2.96;81.38;101235.63;5041643;28;20067;-68
2020/12/19 08:36:36;;;;;;;16.08;10.13;;;;;;;3.01;81.03;101232.38;5045319;28;20041;-69
2020/12/19 08:39:14;;;;;;;15.43;9.82;;;;;;;3.07;80.99;101237.81;5039603;28;20037;-69
2020/12/19 08:41:40;;;;;;;16.23;10.50;;;;;;;3.16;80.59;101246.78;5039709;28;20036;-69
2020/12/19 08:44:05;;;;;;;16.67;11.02;;;;;;;3.21;80.76;101240.91;5039581;28;20395;-69
2020/12/19 08:46:31;;;;;;;15.68;9.98;;;;;;;3.29;80.50;101249.88;5042962;28;20025;-69
2020/12/19 08:49:01;;;;;;;15.07;9.10;;;;;;;3.37;80.50;101247.53;5043002;28;20638;-69
2020/12/19 08:51:26;;;;;;;16.83;10.45;;;;;;;3.43;80.34;101237.31;5039730;28;20048;-69
2020/12/19 08:53:53;;;;;;;15.52;9.90;;;;;;;3.45;79.77;101239.97;5039138;28;20037;-69
2020/12/19 08:56:25;;;;;;;14.18;10.23;;;;;;;3.51;80.30;101243.69;5041479;28;20480;-69
2020/12/19 08:58:56;;;;;;;13.60;9.68;;;;;;;3.57;79.74;101248.22;5042806;28;20028;-69
2020/12/19 09:01:22;;;;;;;14.57;9.60;;;;;;;3.61;79.85;101251.81;5040071;28;20045;-69
2020/12/19 09:03:48;;;;;;;15.23;9.75;;;;;;;3.66;79.53;101240.69;5039263;28;20482;-69
2020/12/19 09:06:14;;;;;;;15.40;10.10;;;;;;;3.72;79.40;101245.22;5040316;28;20124;-69
2020/12/19 09:08:45;;;;;;;14.05;9.45;;;;;;;3.75;79.50;101247.97;5050368;28;20067;-68
2020/12/19 09:11:27;;;;;;;12.25;8.93;;;;;;;3.80;79.44;101243.78;5046109;28;20025;-69
2020/12/19 09:14:07;;;;;;;14.55;9.32;;;;;;;3.84;79.10;101250.84;5046602;28;20120;-70
2020/12/19 09:16:33;;;;;;;15.85;10.65;;;;;;;3.91;79.23;101249.34;5048709;28;20035;-70
2020/12/19 09:18:59;;;;;;;13.95;9.20;;;;;;;3.96;78.82;101255.59;5048147;28;20037;-69
2020/12/19 09:21:24;;;;;;;18.48;11.95;;;;;;;3.95;79.19;101252.06;5049023;28;20116;-68
2020/12/19 09:23:49;;;;;;;17.55;12.23;;;;;;;4.01;78.99;101258.34;5049059;28;20060;-69
2020/12/19 09:26:15;;;;;;;15.57;11.23;;;;;;;4.05;78.70;101255.88;5044667;28;20486;-69
2020/12/19 09:28:40;;;;;;;14.68;10.27;;;;;;;4.11;78.59;101257.78;5056359;28;20431;-69
2020/12/19 09:31:05;;;;;;;16.55;11.27;;;;;;;4.15;78.63;101259.69;5057189;28;20550;-70
2020/12/19 09:33:31;;;;;;;17.02;11.00;;;;;;;4.16;78.38;101254.47;5042729;28;20440;-68
2020/12/19 09:35:56;;;;;;;16.55;10.30;;;;;;;4.21;78.20;101258.97;5042839;28;20516;-70
2020/12/19 09:38:22;;;;;;;15.90;11.23;;;;;;;4.25;78.09;101256.53;5045415;28;20036;-69
2020/12/19 09:40:47;;;;;;;19.05;12.38;;;;;;;4.30;78.10;101252.31;5046352;28;20044;-70
2020/12/19 09:43:13;;;;;;;16.30;11.75;;;;;;;4.36;78.42;101249.88;5044725;28;20487;-69
2020/12/19 09:45:38;;;;;;;16.05;11.27;;;;;;;4.41;78.22;101249.16;5042892;28;20431;-69
2020/12/19 09:48:04;;;;;;;15.23;11.05;;;;;;;4.48;77.76;101253.69;5042825;28;20041;-69
2020/12/19 09:50:31;;;;;;;17.00;11.77;;;;;;;4.51;77.95;101249.47;5046080;28;20041;-69
2020/12/19 09:52:56;;;;;;;16.95;12.18;;;;;;;4.54;77.73;101244.34;5045824;28;20032;-69
2020/12/19 09:55:22;;;;;;;16.77;11.48;;;;;;;4.60;77.57;101251.47;5043532;28;20048;-69
2020/12/19 09:57:48;;;;;;;17.02;11.70;;;;;;;4.59;77.27;101242.75;5042563;28;20041;-69
2020/12/19 10:00:14;;;;;;;16.52;11.15;;;;;;;4.66;77.48;101241.19;5043830;28;20033;-68
2020/12/19 10:02:40;;;;;;;16.20;11.75;;;;;;;4.71;77.60;101234.34;5045688;28;20037;-69
2020/12/19 10:05:06;;;;;;;18.15;12.45;;;;;;;4.75;77.13;101236.22;5045508;28;20036;-69
2020/12/19 10:07:32;;;;;;;14.65;10.93;;;;;;;4.82;77.24;101235.56;5042437;28;20038;-69
2020/12/19 10:09:57;;;;;;;17.75;12.65;;;;;;;4.86;76.84;101233.91;5042346;28;20391;-69
2020/12/19 10:12:23;;;;;;;16.65;11.45;;;;;;;4.90;76.76;101229.66;5044728;28;20086;-69
2020/12/19 10:14:48;;;;;;;14.98;11.63;;;;;;;4.94;76.64;101228.91;5045800;28;20037;-69
2020/12/19 10:17:13;;;;;;;15.73;10.80;;;;;;;4.96;76.72;101229.84;5044259;28;20044;-69
2020/12/19 10:19:39;;;;;;;15.38;11.85;;;;;;;5.00;76.64;101231.69;5042243;28;20040;-69
2020/12/19 10:22:04;;;;;;;15.80;11.02;;;;;;;5.06;76.67;101229.25;5042118;28;20041;-69
2020/12/19 10:24:30;;;;;;;16.88;11.27;;;;;;;5.09;76.52;101226.72;5045378;28;20033;-69
2020/12/19 10:26:55;;;;;;;16.20;11.68;;;;;;;5.13;76.37;101222.44;5045570;28;20064;-69
2020/12/19 10:29:21;;;;;;;16.77;12.23;;;;;;;5.17;76.46;101230.41;5043013;28;20094;-69
2020/12/19 10:31:46;;;;;;;14.10;11.10;;;;;;;5.22;76.38;101227.94;5042055;28;20029;-69
2020/12/19 10:34:12;;;;;;;15.20;10.73;;;;;;;5.25;76.22;101221.03;5046395;28;20116;-70
2020/12/19 10:36:37;;;;;;;14.45;10.40;;;;;;;5.30;76.03;101220.28;5041823;28;20522;-69
2020/12/19 10:39:03;;;;;;;15.13;11.13;;;;;;;5.32;75.82;101221.19;5041830;28;20057;-69
2020/12/19 10:41:29;;;;;;;16.27;11.82;;;;;;;5.36;76.13;101215.19;5041845;28;20116;-69
2020/12/19 10:43:54;;;;;;;14.48;10.73;;;;;;;5.38;75.42;101216.13;5041538;28;20124;-68
2020/12/19 10:46:24;;;;;;;15.85;10.90;;;;;;;5.42;75.28;101212.72;5043991;28;20065;-68
2020/12/19 10:48:49;;;;;;;15.25;11.68;;;;;;;5.41;75.26;101213.59;5045165;28;20029;-68
2020/12/19 10:51:15;;;;;;;15.18;11.00;;;;;;;5.38;75.51;101216.13;5043534;28;20059;-68
2020/12/19 10:53:41;;;;;;;16.38;11.88;;;;;;;5.45;75.56;101210.22;5041377;28;20082;-69
2020/12/19 10:56:07;;;;;;;17.05;12.05;;;;;;;5.49;75.02;101225.13;5041983;28;20040;-69
2020/12/19 10:58:32;;;;;;;15.38;11.38;;;;;;;5.51;75.39;101214.72;5045155;28;20041;-70
2020/12/19 11:00:58;;;;;;;15.77;11.27;;;;;;;5.55;75.50;101200.84;5044859;28;20033;-70
2020/12/19 11:03:23;;;;;;;15.65;11.25;;;;;;;5.58;75.06;101200.91;5041794;28;20104;-68
2020/12/19 11:05:48;;;;;;;16.85;11.77;;;;;;;5.62;74.76;101198.41;5041387;28;20105;-69
2020/12/19 11:08:14;;;;;;;14.32;10.05;;;;;;;5.64;74.92;101206.31;5042684;28;20182;-69
2020/12/19 11:10:42;;;;;;;15.10;11.30;;;;;;;5.68;74.45;101198.56;5043462;28;20029;-69
2020/12/19 11:13:07;;;;;;;14.80;10.98;;;;;;;5.71;75.13;101197.75;5044436;28;20033;-69
2020/12/19 11:15:33;;;;;;;15.10;11.32;;;;;;;5.70;74.49;101202.09;5046104;28;20037;-68